Time;durP1;ratioP1;P1;durP2;ratioP2;P2;SDS_P1;SDS_P2;PMS_P1;PMS_P2;Temp;Humidity;BMP_temperature;BMP_pressure;BME280_temperature;BME280_humidity;BME280_pressure;Samples;Min_cycle;Max_cycle;Signal;HPM_P1;HPM_P2
2022/12/25 00:02:17;;;;;;;5.68;3.10;;;;;9.00;96513.00;;;;8340518;28;20232;-76
2022/12/25 00:06:20;;;;;;;7.95;3.22;;;;;9.00;96518.00;;;;8335205;28;20259;-76
2022/12/25 00:10:24;;;;;;;6.65;3.20;;;;;9.00;96510.00;;;;8343495;28;20221;-75
2022/12/25 00:14:28;;;;;;;8.10;3.05;;;;;8.90;96512.00;;;;8336934;28;20202;-76
2022/12/25 00:18:31;;;;;;;8.23;3.50;;;;;8.90;96506.00;;;;8349872;28;20295;-76
2022/12/25 00:22:35;;;;;;;5.70;2.90;;;;;8.90;96500.00;;;;8349191;28;20209;-76
2022/12/25 00:26:39;;;;;;;7.53;3.70;;;;;8.90;96492.00;;;;8347286;28;20715;-76
2022/12/25 00:30:43;;;;;;;4.78;3.08;;;;;8.90;96500.00;;;;8348351;28;20224;-76
2022/12/25 00:34:47;;;;;;;5.35;3.33;;;;;8.90;96492.00;;;;8345475;28;20224;-76
2022/12/25 00:38:51;;;;;;;5.80;3.15;;;;;8.90;96494.00;;;;8348877;28;20625;-76
2022/12/25 00:42:54;;;;;;;8.90;3.65;;;;;8.80;96497.00;;;;8345113;28;20213;-76
2022/12/25 00:46:58;;;;;;;5.95;3.53;;;;;8.80;96500.00;;;;8343800;28;20203;-76
2022/12/25 00:51:04;;;;;;;4.32;3.42;;;;;8.80;96503.00;;;;8347843;28;20278;-75
2022/12/25 00:55:07;;;;;;;5.25;3.65;;;;;8.90;96500.00;;;;8335652;28;20607;-76
2022/12/25 00:59:10;;;;;;;7.15;3.55;;;;;8.90;96502.00;;;;8344978;28;20193;-76
2022/12/25 01:03:15;;;;;;;6.43;3.35;;;;;8.90;96501.00;;;;8349747;28;20684;-76
2022/12/25 01:07:19;;;;;;;9.93;3.45;;;;;8.90;96508.00;;;;8346807;28;20405;-77
2022/12/25 01:11:22;;;;;;;5.95;3.42;;;;;8.80;96517.00;;;;8343332;28;20227;-76
2022/12/25 01:15:25;;;;;;;8.05;4.07;;;;;8.80;96518.00;;;;8347879;28;20502;-77
2022/12/25 01:19:30;;;;;;;9.73;4.10;;;;;8.80;96523.00;;;;8345748;28;20197;-76
2022/12/25 01:23:34;;;;;;;6.35;4.32;;;;;8.80;96534.00;;;;8348483;28;20296;-76
2022/12/25 01:27:38;;;;;;;7.65;4.60;;;;;8.80;96529.00;;;;8342304;28;20686;-76
2022/12/25 01:31:41;;;;;;;8.55;3.92;;;;;8.80;96529.00;;;;8342423;28;20244;-76
2022/12/25 01:35:45;;;;;;;7.30;4.50;;;;;8.70;96533.00;;;;8340880;28;20268;-76
2022/12/25 01:39:48;;;;;;;8.98;4.35;;;;;8.70;96531.00;;;;8339235;28;20606;-75
2022/12/25 01:44:24;;;;;;;9.68;4.63;;;;;8.70;96540.00;;;;8337708;28;20248;-76
2022/12/25 01:48:30;;;;;;;7.25;4.40;;;;;8.70;96535.00;;;;8340252;28;20658;-76
2022/12/25 01:52:35;;;;;;;10.40;4.68;;;;;8.70;96530.00;;;;8344930;28;20291;-75
2022/12/25 01:56:39;;;;;;;10.10;5.53;;;;;8.60;96527.00;;;;8338183;28;20788;-76
2022/12/25 02:00:42;;;;;;;12.10;5.57;;;;;8.60;96531.00;;;;8336436;28;20275;-75
2022/12/25 02:04:50;;;;;;;9.82;4.82;;;;;8.70;96532.00;;;;8333222;28;20264;-76
2022/12/25 02:08:55;;;;;;;9.85;4.93;;;;;8.70;96521.00;;;;8338903;28;20198;-76
2022/12/25 02:12:59;;;;;;;11.32;4.97;;;;;8.70;96527.00;;;;8336463;28;20224;-77
2022/12/25 02:17:11;;;;;;;8.35;4.85;;;;;8.70;96527.00;;;;8334738;28;20243;-76
2022/12/25 02:21:42;;;;;;;7.78;4.65;;;;;8.70;96525.00;;;;8333340;28;20222;-75
2022/12/25 02:26:04;;;;;;;5.55;4.53;;;;;8.70;96521.00;;;;8342003;28;20691;-76
2022/12/25 02:30:10;;;;;;;9.15;4.75;;;;;8.70;96517.00;;;;8347598;28;20743;-76
2022/12/25 02:34:24;;;;;;;8.55;4.38;;;;;8.70;96526.00;;;;8337015;28;20204;-75
2022/12/25 02:38:34;;;;;;;7.82;4.47;;;;;8.70;96529.00;;;;8330446;28;20613;-76
2022/12/25 03:13:38;;;;;;;12.00;3.92;;;;;8.10;96520.00;;;;8282994;28;21385;-76
2022/12/25 03:17:41;;;;;;;8.80;4.13;;;;;8.00;96507.00;;;;8288165;28;20198;-76
2022/12/25 03:35:22;;;;;;;10.95;3.90;;;;;7.70;96497.00;;;;8281275;28;20208;-76
2022/12/25 04:36:32;;;;;;;9.47;4.00;;;;;7.00;96469.00;;;;8285764;28;20283;-76
2022/12/25 04:40:35;;;;;;;8.70;3.97;;;;;6.90;96471.00;;;;8276786;28;20198;-77
2022/12/25 04:44:38;;;;;;;11.07;4.30;;;;;6.90;96477.00;;;;8270424;28;20203;-77
2022/12/25 04:48:43;;;;;;;6.50;3.70;;;;;6.80;96480.00;;;;8285214;28;20249;-76
2022/12/25 04:52:46;;;;;;;8.97;3.73;;;;;6.70;96476.00;;;;8278422;28;20233;-76
2022/12/25 04:56:49;;;;;;;15.33;4.30;;;;;6.80;96483.00;;;;8280347;28;20210;-76
2022/12/25 05:00:52;;;;;;;6.90;4.27;;;;;6.70;96470.00;;;;8279522;28;20256;-76
2022/12/25 05:04:57;;;;;;;7.07;4.07;;;;;6.60;96465.00;;;;8274479;28;20292;-76
2022/12/25 05:09:00;;;;;;;11.83;4.30;;;;;6.60;96471.00;;;;8282419;28;20202;-76
2022/12/25 05:13:03;;;;;;;8.20;4.20;;;;;6.60;96468.00;;;;8285944;28;20237;-76
2022/12/25 05:17:07;;;;;;;10.90;5.00;;;;;6.60;96474.00;;;;8270392;28;20304;-76
2022/12/25 05:21:12;;;;;;;11.57;4.70;;;;;6.60;96479.00;;;;8281981;28;20254;-76
2022/12/25 05:25:15;;;;;;;9.17;5.07;;;;;6.60;96476.00;;;;8277893;28;20869;-76
2022/12/25 05:29:19;;;;;;;11.30;5.17;;;;;6.60;96475.00;;;;8274891;28;20206;-76
2022/12/25 05:33:22;;;;;;;18.47;5.90;;;;;6.70;96493.00;;;;8274231;28;20237;-76
2022/12/25 05:37:28;;;;;;;17.83;6.10;;;;;6.80;96484.00;;;;8273742;28;20198;-76
2022/12/25 05:41:31;;;;;;;13.50;6.97;;;;;6.80;96473.00;;;;8271733;28;20206;-76
2022/12/25 05:45:38;;;;;;;14.17;7.50;;;;;7.00;96473.00;;;;8282613;28;20537;-76
2022/12/25 05:49:42;;;;;;;18.77;8.18;;;;;7.10;96471.00;;;;8279442;28;20230;-77
2022/12/25 05:53:50;;;;;;;19.57;9.30;;;;;7.20;96478.00;;;;8280484;28;20222;-77
2022/12/25 05:57:57;;;;;;;31.03;10.40;;;;;7.20;96474.00;;;;8277241;28;20247;-77
2022/12/25 06:02:03;;;;;;;44.13;11.23;;;;;7.20;96494.00;;;;8273949;28;20272;-76
2022/12/25 06:06:07;;;;;;;30.80;11.30;;;;;7.20;96474.00;;;;8270247;28;20241;-76
2022/12/25 06:10:13;;;;;;;28.47;11.57;;;;;7.30;96491.00;;;;8270165;28;20202;-76
2022/12/25 06:14:23;;;;;;;28.13;11.55;;;;;7.30;96496.00;;;;8269610;28;20227;-76
2022/12/25 06:18:29;;;;;;;27.77;11.43;;;;;7.30;96495.00;;;;8277100;28;20238;-77
2022/12/25 06:22:33;;;;;;;29.60;12.07;;;;;7.40;96492.00;;;;8273962;28;20202;-77
2022/12/25 06:26:41;;;;;;;30.15;13.30;;;;;7.50;96489.00;;;;8272910;28;20250;-77
2022/12/25 06:30:48;;;;;;;29.03;13.17;;;;;7.60;96487.00;;;;8276630;28;20202;-74
2022/12/25 06:34:51;;;;;;;36.53;15.13;;;;;7.60;96488.00;;;;8278298;28;20890;-76
2022/12/25 06:38:55;;;;;;;33.57;14.63;;;;;7.70;96491.00;;;;8274904;28;20191;-76
2022/12/25 06:43:03;;;;;;;33.05;14.90;;;;;7.70;96490.00;;;;8277309;28;20802;-75
2022/12/25 06:47:06;;;;;;;38.87;16.27;;;;;7.70;96487.00;;;;8279164;28;20698;-77
2022/12/25 06:51:12;;;;;;;32.40;14.90;;;;;7.80;96493.00;;;;8278572;28;20222;-77
2022/12/25 06:55:15;;;;;;;40.67;16.97;;;;;7.80;96497.00;;;;8276670;28;20241;-78
2022/12/25 06:59:24;;;;;;;40.70;15.63;;;;;7.80;96491.00;;;;8270177;28;20199;-76
2022/12/25 07:03:29;;;;;;;38.63;15.83;;;;;7.80;96488.00;;;;8274395;28;20227;-76
2022/12/25 07:07:33;;;;;;;28.47;15.27;;;;;7.90;96503.00;;;;8277699;28;20248;-77
2022/12/25 07:11:36;;;;;;;34.43;14.60;;;;;7.90;96506.00;;;;8272055;28;20774;-76
2022/12/25 07:15:40;;;;;;;33.57;15.53;;;;;7.90;96499.00;;;;8278192;28;20256;-76
2022/12/25 07:19:44;;;;;;;33.78;14.77;;;;;8.00;96491.00;;;;8273879;28;20253;-76
2022/12/25 07:23:54;;;;;;;32.10;15.30;;;;;8.00;96497.00;;;;8280958;28;20232;-77
2022/12/25 07:28:00;;;;;;;30.07;14.40;;;;;8.00;96508.00;;;;8277086;28;20194;-76
2022/12/25 07:32:05;;;;;;;37.17;15.07;;;;;8.00;96497.00;;;;8275726;28;20222;-77
2022/12/25 07:36:09;;;;;;;32.03;13.93;;;;;8.00;96507.00;;;;8272984;28;20206;-77
2022/12/25 07:40:15;;;;;;;26.35;13.85;;;;;8.10;96512.00;;;;8289789;28;20202;-76
2022/12/25 07:44:19;;;;;;;27.90;13.95;;;;;8.10;96510.00;;;;8283529;28;20204;-76
2022/12/25 07:48:24;;;;;;;33.55;14.18;;;;;8.10;96521.00;;;;8276028;28;20679;-77
2022/12/25 07:52:27;;;;;;;24.67;12.60;;;;;8.20;96523.00;;;;8283492;28;20226;-77
2022/12/25 07:57:00;;;;;;;29.20;14.13;;;;;8.20;96516.00;;;;8278130;28;20252;-76
2022/12/25 08:01:12;;;;;;;27.00;13.40;;;;;8.30;96507.00;;;;8278060;28;20260;-77
2022/12/25 08:05:17;;;;;;;26.97;12.57;;;;;8.40;96508.00;;;;8277830;28;20261;-75
2022/12/25 08:09:20;;;;;;;35.00;20.37;;;;;8.50;96516.00;;;;8280803;28;20268;-75
2022/12/25 08:13:29;;;;;;;25.88;14.45;;;;;8.50;96520.00;;;;8279333;28;20857;-75
2022/12/25 08:17:35;;;;;;;94.82;43.72;;;;;8.60;96518.00;;;;8283060;28;20234;-75
2022/12/25 08:21:42;;;;;;;40.15;18.65;;;;;8.70;96518.00;;;;8274126;28;20965;-75
2022/12/25 08:25:47;;;;;;;100.80;57.92;;;;;8.80;96518.00;;;;8281619;28;20726;-74
2022/12/25 08:29:52;;;;;;;56.13;30.25;;;;;8.90;96508.00;;;;8287391;28;20196;-74
2022/12/25 08:33:58;;;;;;;27.70;14.27;;;;;9.00;96508.00;;;;8279693;28;20313;-74
2022/12/25 08:38:06;;;;;;;27.30;13.60;;;;;9.00;96505.00;;;;8281004;28;20213;-74
2022/12/25 08:42:16;;;;;;;20.43;11.80;;;;;9.10;96501.00;;;;8281180;28;20198;-74
2022/12/25 08:46:19;;;;;;;36.25;20.63;;;;;9.20;96491.00;;;;8275210;28;20198;-74
2022/12/25 08:50:23;;;;;;;33.03;24.90;;;;;9.30;96496.00;;;;8283032;28;20212;-74
2022/12/25 08:54:32;;;;;;;31.50;23.55;;;;;9.30;96494.00;;;;8282566;28;20226;-74
2022/12/25 08:58:37;;;;;;;38.20;31.77;;;;;9.40;96488.00;;;;8280796;28;20552;-74
2022/12/25 09:02:43;;;;;;;21.10;12.32;;;;;9.40;96471.00;;;;8280896;28;20904;-74
2022/12/25 09:06:46;;;;;;;16.33;9.35;;;;;9.50;96462.00;;;;8283011;28;21051;-74
2022/12/25 09:10:53;;;;;;;17.50;12.18;;;;;9.70;96468.00;;;;8282870;28;20194;-74
2022/12/25 09:15:22;;;;;;;12.63;8.52;;;;;10.00;96474.00;;;;8277114;28;20691;-74
2022/12/25 09:19:25;;;;;;;11.70;7.72;;;;;10.10;96485.00;;;;8276526;28;20210;-74
2022/12/25 09:23:29;;;;;;;11.90;7.57;;;;;10.10;96490.00;;;;8285231;28;20224;-74
2022/12/25 09:27:36;;;;;;;13.15;7.57;;;;;10.10;96501.00;;;;8280676;28;20222;-74
2022/12/25 09:32:21;;;;;;;12.07;6.28;;;;;10.20;96496.00;;;;8278475;28;20253;-74
2022/12/25 09:36:24;;;;;;;9.23;6.03;;;;;10.30;96490.00;;;;8280293;28;20256;-74
2022/12/25 09:40:31;;;;;;;11.85;6.22;;;;;10.30;96485.00;;;;8276910;28;20256;-73
2022/12/25 09:44:40;;;;;;;15.38;6.22;;;;;10.30;96492.00;;;;8274519;28;20205;-74
2022/12/25 09:48:50;;;;;;;9.68;5.30;;;;;10.40;96497.00;;;;8280233;28;20192;-75
2022/12/25 09:52:58;;;;;;;10.07;5.32;;;;;10.50;96495.00;;;;8276054;28;20865;-75
2022/12/25 09:57:02;;;;;;;7.18;5.40;;;;;10.60;96499.00;;;;8272061;28;20213;-74
2022/12/25 10:01:18;;;;;;;10.80;5.68;;;;;10.60;96497.00;;;;8276463;28;20208;-73
2022/12/25 10:05:39;;;;;;;7.88;5.25;;;;;10.60;96489.00;;;;8280236;28;20205;-74
2022/12/25 10:09:58;;;;;;;10.43;5.35;;;;;10.60;96488.00;;;;8282072;28;20662;-74
2022/12/25 10:14:17;;;;;;;8.40;4.75;;;;;10.70;96502.00;;;;8274402;28;20219;-74
2022/12/25 10:18:44;;;;;;;8.73;5.22;;;;;10.70;96469.00;;;;8276475;28;20849;-73
2022/12/25 10:22:51;;;;;;;7.35;4.95;;;;;10.80;96480.00;;;;8277140;28;20256;-73
2022/12/25 10:27:01;;;;;;;7.93;4.13;;;;;10.90;96472.00;;;;8275534;28;20198;-74
2022/12/25 10:31:17;;;;;;;5.88;4.57;;;;;11.00;96464.00;;;;8269774;28;20202;-74
2022/12/25 10:35:24;;;;;;;6.50;4.20;;;;;11.00;96463.00;;;;8270333;28;20245;-73
2022/12/25 10:39:27;;;;;;;7.35;4.65;;;;;11.10;96438.00;;;;8271978;28;20268;-75
2022/12/25 10:43:38;;;;;;;8.05;4.68;;;;;11.20;96429.00;;;;8275747;28;20216;-74
2022/12/25 10:47:42;;;;;;;10.85;4.45;;;;;11.20;96414.00;;;;8274533;28;20235;-75
2022/12/25 10:51:46;;;;;;;5.90;4.15;;;;;11.30;96413.00;;;;8271539;28;20190;-76
2022/12/25 10:55:57;;;;;;;5.40;3.85;;;;;11.40;96400.00;;;;8265728;28;20263;-74
2022/12/25 11:00:05;;;;;;;7.47;4.07;;;;;11.40;96400.00;;;;8270363;28;20639;-76
2022/12/25 11:04:19;;;;;;;6.10;4.18;;;;;11.50;96393.00;;;;8268516;28;20944;-77
2022/12/25 11:08:53;;;;;;;7.05;3.97;;;;;11.60;96396.00;;;;8275700;28;20209;-77
2022/12/25 11:12:59;;;;;;;7.65;4.20;;;;;11.70;96379.00;;;;8274586;28;20288;-76
2022/12/25 11:17:21;;;;;;;4.80;3.50;;;;;11.60;96369.00;;;;8274209;28;20195;-77
2022/12/25 11:21:27;;;;;;;8.40;4.00;;;;;11.40;96381.00;;;;8277155;28;20237;-78
2022/12/25 11:25:34;;;;;;;5.35;3.85;;;;;11.30;96369.00;;;;8271723;28;20206;-79
2022/12/25 11:29:44;;;;;;;4.78;3.72;;;;;11.20;96367.00;;;;8287484;28;20260;-77
2022/12/25 11:33:55;;;;;;;8.65;4.28;;;;;11.20;96371.00;;;;8279029;28;20234;-78
2022/12/25 11:37:58;;;;;;;7.38;4.20;;;;;11.20;96380.00;;;;8287507;28;20279;-77
2022/12/25 11:42:14;;;;;;;7.18;3.63;;;;;11.30;96380.00;;;;8289376;28;20278;-78
2022/12/25 11:46:24;;;;;;;6.38;4.10;;;;;11.30;96371.00;;;;8282841;28;20235;-78
2022/12/25 11:50:33;;;;;;;4.68;3.90;;;;;11.30;96352.00;;;;8271583;28;20230;-78
2022/12/25 11:54:44;;;;;;;7.15;4.00;;;;;11.30;96357.00;;;;8280649;28;20236;-77
2022/12/25 11:58:53;;;;;;;6.93;4.07;;;;;11.30;96357.00;;;;8283254;28;20213;-78
2022/12/25 12:03:01;;;;;;;8.07;3.40;;;;;11.30;96354.00;;;;8280961;28;20765;-77
2022/12/25 12:07:08;;;;;;;4.47;3.97;;;;;11.30;96355.00;;;;8272649;28;20653;-77
2022/12/25 12:11:17;;;;;;;5.78;3.75;;;;;11.30;96340.00;;;;8277559;28;20718;-77
2022/12/25 12:20:29;;;;;;;10.63;4.65;;;;;11.50;96345.00;;;;8269294;28;20198;-77
2022/12/25 12:24:37;;;;;;;6.35;4.20;;;;;11.60;96344.00;;;;8280406;28;20206;-78
2022/12/25 12:28:45;;;;;;;6.10;3.97;;;;;11.70;96338.00;;;;8270230;28;20198;-77
2022/12/25 12:32:52;;;;;;;8.57;4.22;;;;;11.80;96349.00;;;;8272004;28;20616;-77
2022/12/25 12:37:04;;;;;;;7.93;3.85;;;;;11.70;96330.00;;;;8269859;28;20720;-77
2022/12/25 12:41:12;;;;;;;9.35;4.32;;;;;11.70;96328.00;;;;8273677;28;20210;-77
2022/12/25 12:45:21;;;;;;;8.95;4.38;;;;;11.80;96325.00;;;;8266044;28;20217;-77
2022/12/25 12:49:27;;;;;;;4.22;3.03;;;;;11.80;96331.00;;;;8273595;28;20264;-77
2022/12/25 12:53:33;;;;;;;8.35;3.50;;;;;11.70;96303.00;;;;8273385;28;20283;-76
2022/12/25 12:57:39;;;;;;;4.97;3.22;;;;;11.80;96291.00;;;;8275432;28;20279;-76
2022/12/25 13:01:51;;;;;;;3.72;3.13;;;;;11.80;96282.00;;;;8276281;28;20237;-77
2022/12/25 13:06:01;;;;;;;10.38;3.42;;;;;11.80;96269.00;;;;8276173;28;20203;-77
2022/12/25 13:10:19;;;;;;;6.00;3.60;;;;;11.90;96271.00;;;;8277433;28;20198;-77
2022/12/25 13:14:24;;;;;;;7.70;3.50;;;;;11.90;96285.00;;;;8289474;28;21466;-76
2022/12/25 13:18:27;;;;;;;5.13;3.03;;;;;11.90;96274.00;;;;8273281;28;20209;-78
2022/12/25 13:22:33;;;;;;;6.38;3.03;;;;;12.00;96278.00;;;;8279697;28;20235;-77
2022/12/25 13:26:40;;;;;;;6.45;3.67;;;;;11.90;96286.00;;;;8282395;28;20768;-77
2022/12/25 13:30:43;;;;;;;8.32;3.67;;;;;11.90;96292.00;;;;8278066;28;20979;-76
2022/12/25 13:34:46;;;;;;;3.90;3.38;;;;;11.90;96290.00;;;;8281298;28;20672;-77
2022/12/25 13:39:01;;;;;;;8.23;3.92;;;;;11.90;96288.00;;;;8279201;28;20263;-78
2022/12/25 13:43:09;;;;;;;5.57;3.60;;;;;11.90;96275.00;;;;8283039;28;20202;-78
2022/12/25 13:47:25;;;;;;;8.38;3.22;;;;;12.00;96276.00;;;;8279384;28;20994;-78
2022/12/25 13:51:30;;;;;;;10.73;6.22;;;;;12.00;96249.00;;;;8267854;28;20206;-76
2022/12/25 13:55:37;;;;;;;9.40;5.28;;;;;11.90;96255.00;;;;8279857;28;20230;-76
2022/12/25 13:59:45;;;;;;;12.15;5.15;;;;;11.80;96263.00;;;;8306198;28;20204;-78
2022/12/25 14:03:48;;;;;;;13.85;8.10;;;;;11.70;96267.00;;;;8280400;28;20299;-75
2022/12/25 14:07:56;;;;;;;5.78;3.90;;;;;11.50;96262.00;;;;8284692;28;20206;-77
2022/12/25 14:12:04;;;;;;;8.55;3.40;;;;;11.40;96275.00;;;;8296844;28;20197;-77
2022/12/25 14:16:09;;;;;;;7.70;3.70;;;;;11.30;96274.00;;;;8303792;28;20268;-77
2022/12/25 14:20:26;;;;;;;5.00;3.53;;;;;11.30;96273.00;;;;8293186;28;20255;-76
2022/12/25 14:24:31;;;;;;;12.15;4.00;;;;;11.30;96266.00;;;;8284962;28;20606;-78
2022/12/25 14:28:37;;;;;;;5.57;3.45;;;;;11.30;96253.00;;;;8296369;28;20260;-75
2022/12/25 14:32:45;;;;;;;7.35;3.78;;;;;11.30;96266.00;;;;8277271;28;20284;-76
2022/12/25 14:36:49;;;;;;;6.13;3.70;;;;;11.30;96268.00;;;;8278058;28;20214;-78
2022/12/25 14:41:02;;;;;;;7.53;3.90;;;;;11.30;96262.00;;;;8279964;28;20209;-77
2022/12/25 14:45:24;;;;;;;9.85;4.05;;;;;11.20;96265.00;;;;8278871;28;20213;-75
2022/12/25 14:49:32;;;;;;;11.00;4.35;;;;;11.10;96252.00;;;;8285744;28;21677;-77
2022/12/25 14:53:41;;;;;;;8.05;4.07;;;;;11.00;96260.00;;;;8290482;28;20200;-76
2022/12/25 14:57:48;;;;;;;8.13;3.78;;;;;10.90;96264.00;;;;8284313;28;20201;-78
2022/12/25 15:01:55;;;;;;;7.63;4.47;;;;;10.70;96269.00;;;;8300013;28;20221;-77
2022/12/25 15:06:03;;;;;;;9.73;4.18;;;;;10.60;96274.00;;;;8296057;28;20204;-78
2022/12/25 15:10:14;;;;;;;9.52;4.32;;;;;10.50;96272.00;;;;8302888;28;20753;-76
2022/12/25 15:14:39;;;;;;;10.73;4.63;;;;;10.30;96268.00;;;;8296943;28;20257;-78
2022/12/25 15:18:46;;;;;;;6.88;4.07;;;;;10.20;96267.00;;;;8287853;28;20248;-77
2022/12/25 15:22:51;;;;;;;7.60;4.65;;;;;10.10;96257.00;;;;8272594;28;20634;-74
2022/12/25 15:27:20;;;;;;;12.93;5.32;;;;;10.00;96244.00;;;;8271876;28;20508;-74
2022/12/25 15:31:50;;;;;;;9.65;5.93;;;;;9.90;96236.00;;;;8271091;28;20198;-74
2022/12/25 15:36:27;;;;;;;9.95;4.90;;;;;9.90;96241.00;;;;8271602;28;20672;-74
2022/12/25 15:40:33;;;;;;;13.20;6.05;;;;;9.90;96246.00;;;;8270477;28;20201;-74
2022/12/25 15:44:40;;;;;;;11.85;4.72;;;;;9.80;96246.00;;;;8269700;28;20193;-74
2022/12/25 15:49:14;;;;;;;9.82;5.32;;;;;9.70;96236.00;;;;8270403;28;20191;-75
2022/12/25 15:53:19;;;;;;;11.32;5.50;;;;;9.60;96235.00;;;;8270936;28;20692;-74
2022/12/25 15:57:56;;;;;;;14.63;5.35;;;;;9.50;96232.00;;;;8269401;28;20265;-74
2022/12/25 16:02:01;;;;;;;15.75;6.25;;;;;9.50;96231.00;;;;8270882;28;20277;-75
2022/12/25 16:06:07;;;;;;;10.80;5.70;;;;;9.50;96223.00;;;;8268389;28;20285;-74
2022/12/25 16:10:15;;;;;;;9.20;5.00;;;;;9.40;96217.00;;;;8270983;28;20212;-74
2022/12/25 16:14:24;;;;;;;9.23;5.53;;;;;9.40;96229.00;;;;8270893;28;20306;-74
2022/12/25 16:18:55;;;;;;;12.65;5.82;;;;;9.40;96239.00;;;;8269439;28;20201;-74
2022/12/25 16:22:58;;;;;;;16.05;7.68;;;;;9.40;96242.00;;;;8270741;28;20661;-74
2022/12/25 16:27:35;;;;;;;17.45;6.90;;;;;9.30;96247.00;;;;8269470;28;20245;-74
2022/12/25 16:31:42;;;;;;;6.85;5.68;;;;;9.30;96248.00;;;;8269162;28;20266;-74
2022/12/25 16:36:16;;;;;;;9.57;5.68;;;;;9.30;96235.00;;;;8269163;28;20223;-74
2022/12/25 16:40:28;;;;;;;12.80;5.40;;;;;9.30;96233.00;;;;8269448;28;20190;-75
2022/12/25 16:44:31;;;;;;;14.00;6.60;;;;;9.40;96233.00;;;;8269822;28;20203;-74
2022/12/25 16:49:10;;;;;;;22.95;8.43;;;;;9.40;96229.00;;;;8269159;28;20249;-74
2022/12/25 16:53:14;;;;;;;18.60;6.35;;;;;9.50;96228.00;;;;8268660;28;20199;-74
2022/12/25 16:57:51;;;;;;;12.48;5.80;;;;;9.50;96222.00;;;;8266722;28;20222;-74
2022/12/25 17:01:54;;;;;;;27.27;8.55;;;;;9.50;96234.00;;;;8268997;28;20223;-75
2022/12/25 17:06:00;;;;;;;14.45;6.35;;;;;9.50;96241.00;;;;8267172;28;20544;-74
2022/12/25 17:10:05;;;;;;;14.68;6.28;;;;;9.50;96240.00;;;;8269214;28;20576;-75
2022/12/25 17:14:10;;;;;;;12.75;5.70;;;;;9.50;96216.00;;;;8267176;28;20202;-74
2022/12/25 17:18:44;;;;;;;8.93;5.90;;;;;9.50;96221.00;;;;8262965;28;20234;-75
2022/12/25 17:23:22;;;;;;;11.55;6.07;;;;;9.50;96212.00;;;;8268861;28;20195;-76
2022/12/25 17:27:59;;;;;;;28.67;9.00;;;;;9.50;96199.00;;;;8267472;28;20203;-76
2022/12/25 17:32:04;;;;;;;29.02;10.10;;;;;9.50;96197.00;;;;8268645;28;20195;-76
2022/12/25 17:36:09;;;;;;;21.20;7.55;;;;;9.50;96202.00;;;;8267290;28;20225;-76
2022/12/25 17:40:53;;;;;;;16.30;6.63;;;;;9.50;96206.00;;;;8264580;28;20190;-76
2022/12/25 17:45:26;;;;;;;21.38;7.40;;;;;9.50;96214.00;;;;8265532;28;20278;-76
2022/12/25 17:49:57;;;;;;;31.48;9.65;;;;;9.50;96218.00;;;;8260629;28;20493;-75
2022/12/25 17:54:49;;;;;;;19.60;7.63;;;;;9.50;96216.00;;;;8265647;28;20197;-75
2022/12/25 17:59:27;;;;;;;71.55;16.50;;;;;9.50;96221.00;;;;8261844;28;20272;-76
2022/12/25 18:03:59;;;;;;;65.72;16.38;;;;;9.40;96219.00;;;;8262718;28;20675;-76
2022/12/25 18:08:30;;;;;;;59.67;15.25;;;;;9.40;96205.00;;;;8262484;28;20252;-77
2022/12/25 18:12:44;;;;;;;63.25;14.00;;;;;9.40;96209.00;;;;8267687;28;20214;-76
2022/12/25 18:17:17;;;;;;;45.40;10.45;;;;;9.40;96204.00;;;;8266355;28;20292;-75
2022/12/25 18:21:56;;;;;;;16.70;5.53;;;;;9.30;96209.00;;;;8267284;28;20194;-76
2022/12/25 18:26:29;;;;;;;12.75;5.20;;;;;9.20;96215.00;;;;8265177;28;20195;-76
2022/12/25 18:31:07;;;;;;;10.65;5.63;;;;;9.20;96207.00;;;;8263812;28;20198;-76
2022/12/25 18:35:45;;;;;;;11.00;5.32;;;;;9.00;96203.00;;;;8266557;28;20258;-76
2022/12/25 18:39:53;;;;;;;10.75;5.22;;;;;9.00;96200.00;;;;8265582;28;20540;-76
2022/12/25 18:43:57;;;;;;;13.90;6.20;;;;;9.00;96197.00;;;;8266279;28;20268;-75
2022/12/25 18:48:34;;;;;;;16.10;5.93;;;;;8.90;96195.00;;;;8266266;28;20620;-75
2022/12/25 18:53:09;;;;;;;12.73;5.13;;;;;8.80;96181.00;;;;8264125;28;20202;-76
2022/12/25 18:57:59;;;;;;;13.00;5.25;;;;;8.70;96173.00;;;;8263776;28;20222;-76
2022/12/25 19:02:30;;;;;;;17.30;6.45;;;;;8.60;96185.00;;;;8264692;28;20313;-77
2022/12/25 19:07:04;;;;;;;13.25;6.78;;;;;8.50;96192.00;;;;8265081;28;20205;-76
2022/12/25 19:11:08;;;;;;;12.47;5.80;;;;;8.40;96198.00;;;;8266211;28;20572;-76
2022/12/25 19:15:11;;;;;;;12.82;5.85;;;;;8.40;96198.00;;;;8265432;28;20179;-76
2022/12/25 19:19:21;;;;;;;11.30;5.63;;;;;8.30;96194.00;;;;8265812;28;20247;-76
2022/12/25 19:23:26;;;;;;;11.27;5.38;;;;;8.20;96200.00;;;;8265722;28;20207;-76
2022/12/25 19:28:07;;;;;;;11.82;6.00;;;;;8.20;96189.00;;;;8263694;28;20765;-75
2022/12/25 19:32:46;;;;;;;12.77;5.60;;;;;8.10;96193.00;;;;8266148;28;20205;-77
2022/12/25 19:37:18;;;;;;;13.43;6.78;;;;;8.10;96205.00;;;;8264481;28;20280;-76
2022/12/25 19:41:49;;;;;;;10.52;6.10;;;;;8.10;96184.00;;;;8270889;28;20202;-75
2022/12/25 19:46:25;;;;;;;12.90;5.82;;;;;8.10;96196.00;;;;8271793;28;20198;-76
2022/12/25 19:51:13;;;;;;;17.50;7.38;;;;;8.10;96204.00;;;;8270103;28;20206;-76
2022/12/25 19:55:40;;;;;;;18.83;6.30;;;;;8.10;96194.00;;;;8270883;28;20219;-76
2022/12/25 20:00:17;;;;;;;8.90;5.35;;;;;8.10;96189.00;;;;8271601;28;20217;-76
2022/12/25 20:04:54;;;;;;;16.00;5.97;;;;;8.10;96188.00;;;;8270493;28;20292;-76
2022/12/25 20:09:31;;;;;;;10.93;5.82;;;;;8.00;96171.00;;;;8271142;28;20195;-76
2022/12/25 20:19:08;;;;;;;14.20;5.80;;;;;7.90;96151.00;;;;8270217;28;20222;-78
2022/12/25 20:23:12;;;;;;;12.27;5.97;;;;;7.90;96166.00;;;;8269171;28;20730;-77
2022/12/25 20:27:46;;;;;;;16.88;5.78;;;;;7.80;96157.00;;;;8270311;28;20253;-78
2022/12/25 20:32:23;;;;;;;11.02;6.38;;;;;7.70;96158.00;;;;8269058;28;20248;-78
2022/12/25 20:37:02;;;;;;;16.83;6.70;;;;;7.70;96169.00;;;;8268734;28;20223;-78
2022/12/25 20:41:38;;;;;;;18.83;6.18;;;;;7.60;96202.00;;;;8269454;28;20199;-79
2022/12/25 20:45:43;;;;;;;11.03;5.43;;;;;7.70;96205.00;;;;8270296;28;20529;-79
2022/12/25 20:49:48;;;;;;;14.27;6.77;;;;;7.60;96187.00;;;;8268668;28;20285;-78
2022/12/25 20:54:23;;;;;;;12.53;6.43;;;;;7.60;96191.00;;;;8268044;28;20202;-77
2022/12/25 20:58:58;;;;;;;10.27;6.23;;;;;7.50;96188.00;;;;8267864;28;20272;-77
2022/12/25 21:03:35;;;;;;;15.55;6.93;;;;;7.50;96191.00;;;;8268374;28;20237;-77
2022/12/25 21:07:40;;;;;;;15.70;7.50;;;;;7.50;96182.00;;;;8267720;28;20199;-78
2022/12/25 21:11:45;;;;;;;15.05;6.32;;;;;7.50;96184.00;;;;8268757;28;20280;-77
2022/12/25 21:15:50;;;;;;;18.63;7.60;;;;;7.50;96180.00;;;;8267172;28;20207;-77
2022/12/25 21:20:26;;;;;;;21.87;10.07;;;;;7.40;96194.00;;;;8268474;28;20277;-78
2022/12/25 21:24:29;;;;;;;15.07;6.90;;;;;7.40;96187.00;;;;8268118;28;20199;-78
2022/12/25 21:29:09;;;;;;;13.88;7.35;;;;;7.30;96191.00;;;;8265675;28;20242;-78
2022/12/25 21:33:52;;;;;;;14.40;6.67;;;;;7.30;96199.00;;;;8267653;28;20238;-77
2022/12/25 21:38:04;;;;;;;20.70;7.90;;;;;7.20;96200.00;;;;8267413;28;20226;-77
2022/12/25 21:42:09;;;;;;;9.80;5.77;;;;;7.20;96213.00;;;;8268015;28;20197;-79
2022/12/25 21:46:43;;;;;;;10.30;6.27;;;;;7.10;96216.00;;;;8267003;28;20238;-79
2022/12/25 21:55:57;;;;;;;13.07;6.47;;;;;6.90;96234.00;;;;8267020;28;20199;-78
2022/12/25 22:00:19;;;;;;;14.60;7.13;;;;;6.60;96236.00;;;;8264117;28;20241;-77
2022/12/25 22:04:23;;;;;;;17.67;6.43;;;;;6.50;96231.00;;;;8263868;28;20695;-77
2022/12/25 22:09:02;;;;;;;17.70;8.03;;;;;6.30;96221.00;;;;8266711;28;20198;-76
2022/12/25 22:22:19;;;;;;;22.87;7.83;;;;;6.10;96227.00;;;;8265566;28;20273;-76
2022/12/25 22:26:24;;;;;;;18.47;8.73;;;;;6.10;96223.00;;;;8267380;28;20186;-76
2022/12/25 22:30:28;;;;;;;16.53;8.50;;;;;6.10;96217.00;;;;8265634;28;20654;-76
2022/12/25 22:35:02;;;;;;;14.07;7.53;;;;;6.00;96219.00;;;;8266086;28;20195;-76
2022/12/25 22:39:42;;;;;;;19.80;7.97;;;;;6.00;96218.00;;;;8266603;28;20222;-76
2022/12/25 22:44:17;;;;;;;19.83;7.53;;;;;6.00;96232.00;;;;8264073;28;20242;-76
2022/12/25 22:48:56;;;;;;;12.57;6.80;;;;;6.00;96232.00;;;;8266372;28;20225;-76
2022/12/25 22:53:29;;;;;;;15.53;7.67;;;;;5.90;96236.00;;;;8266189;28;20199;-76
2022/12/25 22:57:32;;;;;;;12.20;6.93;;;;;5.90;96233.00;;;;8265269;28;20222;-76
2022/12/25 23:02:09;;;;;;;18.67;7.40;;;;;5.90;96223.00;;;;8266013;28;20218;-76
2022/12/25 23:06:46;;;;;;;17.50;7.20;;;;;5.80;96221.00;;;;8265535;28;20203;-76
2022/12/25 23:10:49;;;;;;;20.17;8.10;;;;;5.80;96228.00;;;;8266098;28;20270;-76